Waddington, United Kingdom
Current Conditions -  °F | °C
As of 3:50 PM on Sunday 21 Dec 2014 (Local Time) from EGXW Reporting Station
Broken Clouds Broken Clouds  
Wind Chill: 50°   Ceiling: 22000
Heat Index: 50°   Visibility: 6mi
Dew Point: 43°   Wind: 20mph
Humidity: 76%   Direction: 240°WSW
Pressure: 30.03"   Gusts: NA
Location:  53.17°N, 0.52°W
Report Text: EGXW 211550Z 24017KT 9999 FEW020 BKN220 10/06 Q1017 BLU NOSIG
Loading
Personal Weather Stations






























Interactive Weather Map New forecast layout! Learn more

10-Day Weather Forecast

Advertisements
Track Severe Weather on mobile